createdAt,value
2023-09-06T00:01:43.767Z,7.72
2023-09-06T00:04:11.080Z,5.57
2023-09-06T00:06:37.682Z,5.95
2023-09-06T00:09:05.175Z,5.10
2023-09-06T00:11:31.898Z,5.93
2023-09-06T00:13:58.294Z,6.80
2023-09-06T00:16:24.687Z,6.18
2023-09-06T00:18:51.954Z,8.55
2023-09-06T00:21:18.620Z,7.35
2023-09-06T00:23:45.074Z,6.72
2023-09-06T00:26:11.843Z,6.05
2023-09-06T00:28:38.953Z,6.50
2023-09-06T00:31:05.441Z,5.80
2023-09-06T00:33:34.919Z,6.03
2023-09-06T00:36:03.744Z,6.25
2023-09-06T00:38:30.504Z,6.28
2023-09-06T00:40:57.582Z,8.45
2023-09-06T00:43:23.966Z,5.80
2023-09-06T00:45:52.398Z,6.60
2023-09-06T00:48:28.534Z,6.13
2023-09-06T00:50:56.861Z,6.25
2023-09-06T00:53:26.377Z,6.38
2023-09-06T00:55:53.529Z,6.10
2023-09-06T00:58:21.259Z,5.63
2023-09-06T01:00:50.294Z,6.80
2023-09-06T01:03:18.367Z,6.30
2023-09-06T01:05:44.788Z,6.57
2023-09-06T01:08:14.420Z,6.95
2023-09-06T01:10:41.200Z,5.13
2023-09-06T01:13:07.596Z,7.10
2023-09-06T01:15:34.651Z,6.35
2023-09-06T01:18:06.336Z,5.20
2023-09-06T01:20:43.630Z,5.40
2023-09-06T01:23:32.163Z,5.75
2023-09-06T01:25:58.619Z,6.40
2023-09-06T01:28:29.206Z,6.60
2023-09-06T01:30:56.847Z,5.30
2023-09-06T01:33:23.847Z,5.75
2023-09-06T01:35:50.836Z,9.73
2023-09-06T01:38:17.851Z,6.93
2023-09-06T01:40:45.003Z,6.18
2023-09-06T01:43:11.668Z,5.40
2023-09-06T01:45:40.174Z,5.22
2023-09-06T01:48:06.734Z,7.50
2023-09-06T01:50:33.097Z,7.60
2023-09-06T01:52:59.871Z,8.20
2023-09-06T01:55:26.259Z,6.88
2023-09-06T01:57:52.692Z,5.40
2023-09-06T02:00:28.954Z,5.40
2023-09-06T02:02:56.125Z,5.30
2023-09-06T02:05:23.285Z,5.72
2023-09-06T02:07:51.391Z,6.70
2023-09-06T02:10:18.520Z,7.03
2023-09-06T02:12:45.824Z,6.57
2023-09-06T02:15:16.194Z,8.30
2023-09-06T02:17:44.176Z,6.03
2023-09-06T02:20:18.986Z,6.78
2023-09-06T02:25:13.898Z,5.57
2023-09-06T02:27:41.756Z,6.78
2023-09-06T02:30:09.232Z,5.18
2023-09-06T02:32:35.769Z,8.23
2023-09-06T02:35:02.741Z,5.95
2023-09-06T02:37:29.160Z,5.75
2023-09-06T02:39:55.579Z,6.15
2023-09-06T02:42:23.234Z,8.65
2023-09-06T02:44:49.674Z,7.60
2023-09-06T02:47:16.283Z,6.57
2023-09-06T02:49:47.338Z,6.95
2023-09-06T02:52:29.298Z,7.68
2023-09-06T02:54:59.158Z,6.28
2023-09-06T02:57:29.868Z,6.97
2023-09-06T02:59:56.257Z,5.55
2023-09-06T03:02:25.648Z,5.63
2023-09-06T03:04:56.280Z,6.97
2023-09-06T03:07:23.187Z,6.18
2023-09-06T03:09:51.183Z,6.57
2023-09-06T03:12:17.862Z,7.07
2023-09-06T03:14:49.148Z,6.13
2023-09-06T03:17:19.761Z,6.15
2023-09-06T03:19:49.135Z,6.53
2023-09-06T03:22:16.609Z,5.38
2023-09-06T03:24:44.428Z,5.60
2023-09-06T03:27:16.763Z,6.95
2023-09-06T03:29:47.608Z,5.53
2023-09-06T03:32:14.484Z,7.07
2023-09-06T03:34:41.864Z,5.93
2023-09-06T03:37:12.401Z,6.80
2023-09-06T03:39:42.409Z,7.18
2023-09-06T03:42:09.622Z,5.10
2023-09-06T03:44:37.449Z,5.00
2023-09-06T03:47:14.573Z,6.93
2023-09-06T03:49:42.459Z,6.22
2023-09-06T03:52:08.952Z,6.10
2023-09-06T03:54:35.817Z,7.40
2023-09-06T03:57:03.843Z,5.60
2023-09-06T03:59:32.930Z,9.23
2023-09-06T04:01:59.687Z,5.68
2023-09-06T04:04:26.688Z,5.88
2023-09-06T04:06:53.271Z,6.50
2023-09-06T04:09:19.860Z,6.20
2023-09-06T04:11:48.134Z,6.78
2023-09-06T04:14:15.293Z,6.72
2023-09-06T04:16:41.747Z,6.40
2023-09-06T04:19:08.220Z,6.43
2023-09-06T04:21:34.652Z,4.65
2023-09-06T04:24:01.059Z,6.35
2023-09-06T04:26:27.845Z,5.38
2023-09-06T04:28:54.306Z,4.85
2023-09-06T04:31:20.806Z,5.90
2023-09-06T04:33:47.749Z,6.25
2023-09-06T04:36:14.115Z,6.57
2023-09-06T04:38:40.556Z,6.30
2023-09-06T04:41:07.359Z,6.25
2023-09-06T04:43:34.217Z,6.57
2023-09-06T04:46:01.019Z,6.30
2023-09-06T04:48:28.263Z,6.10
2023-09-06T04:50:57.545Z,6.18
2023-09-06T04:53:23.975Z,6.53
2023-09-06T04:55:51.289Z,6.85
2023-09-06T04:58:19.185Z,5.68
2023-09-06T05:00:48.889Z,5.95
2023-09-06T05:03:19.546Z,5.70
2023-09-06T05:05:47.399Z,7.30
2023-09-06T05:08:14.971Z,8.50
2023-09-06T05:10:41.892Z,5.35
2023-09-06T05:13:09.727Z,6.55
2023-09-06T05:15:37.346Z,7.57
2023-09-06T05:18:09.673Z,6.65
2023-09-06T05:20:39.025Z,6.40
2023-09-06T05:23:12.417Z,7.47
2023-09-06T05:25:40.092Z,7.07
2023-09-06T05:28:10.281Z,6.45
2023-09-06T05:30:41.810Z,7.30
2023-09-06T05:33:08.423Z,7.40
2023-09-06T05:35:35.446Z,8.13
2023-09-06T05:38:05.848Z,7.72
2023-09-06T05:40:34.387Z,6.68
2023-09-06T05:43:01.124Z,7.20
2023-09-06T05:45:28.067Z,9.30
2023-09-06T05:47:54.903Z,7.82
2023-09-06T05:50:21.634Z,6.93
2023-09-06T05:52:48.865Z,7.35
2023-09-06T05:55:15.859Z,8.43
2023-09-06T05:57:42.503Z,8.32
2023-09-06T06:00:14.365Z,6.88
2023-09-06T06:02:41.302Z,7.40
2023-09-06T06:05:08.298Z,7.22
2023-09-06T06:07:34.920Z,8.45
2023-09-06T06:10:01.328Z,9.90
2023-09-06T06:12:28.212Z,9.70
2023-09-06T06:14:54.971Z,15.80
2023-09-06T06:17:21.425Z,21.80
2023-09-06T06:19:49.314Z,21.27
2023-09-06T06:22:16.147Z,16.23
2023-09-06T06:24:45.515Z,9.77
2023-09-06T06:27:12.168Z,8.80
2023-09-06T06:29:39.761Z,8.80
2023-09-06T06:32:06.599Z,7.32
2023-09-06T06:34:33.109Z,7.32
2023-09-06T06:36:59.880Z,6.80
2023-09-06T06:39:27.272Z,5.75
2023-09-06T06:41:53.636Z,7.10
2023-09-06T06:44:20.454Z,8.07
2023-09-06T06:46:46.922Z,6.20
2023-09-06T06:49:13.326Z,6.70
2023-09-06T06:51:43.575Z,7.07
2023-09-06T06:54:11.747Z,5.85
2023-09-06T06:56:38.914Z,5.82
2023-09-06T06:59:05.910Z,5.80
2023-09-06T07:01:32.554Z,6.88
2023-09-06T07:03:59.612Z,5.90
2023-09-06T07:06:27.542Z,5.75
2023-09-06T07:08:55.705Z,7.38
2023-09-06T07:11:22.447Z,5.95
2023-09-06T07:13:50.625Z,5.15
2023-09-06T07:16:19.299Z,8.30
2023-09-06T07:18:47.473Z,7.10
2023-09-06T07:21:15.421Z,5.78
2023-09-06T07:23:41.910Z,7.90
2023-09-06T07:26:08.601Z,6.43
2023-09-06T07:28:45.987Z,7.70
2023-09-06T07:31:13.721Z,6.50
2023-09-06T07:33:40.101Z,6.15
2023-09-06T07:36:07.530Z,6.82
2023-09-06T07:38:34.367Z,8.98
2023-09-06T07:41:02.339Z,8.52
2023-09-06T07:43:30.065Z,6.55
2023-09-06T07:45:57.831Z,8.68
2023-09-06T07:48:26.673Z,7.70
2023-09-06T07:50:54.071Z,7.63
2023-09-06T07:53:20.610Z,6.32
2023-09-06T07:55:47.619Z,6.47
2023-09-06T07:58:15.477Z,8.70
2023-09-06T08:00:42.616Z,6.13
2023-09-06T08:03:09.506Z,6.38
2023-09-06T08:05:36.803Z,6.72
2023-09-06T08:08:05.712Z,6.15
2023-09-06T08:10:32.190Z,7.28
2023-09-06T08:12:58.997Z,6.35
2023-09-06T08:15:25.507Z,8.32
2023-09-06T08:17:52.453Z,6.45
2023-09-06T08:20:19.206Z,6.47
2023-09-06T08:22:46.425Z,11.23
2023-09-06T08:25:18.297Z,6.65
2023-09-06T08:27:45.288Z,6.38
2023-09-06T08:30:13.961Z,6.72
2023-09-06T08:32:42.191Z,7.25
2023-09-06T08:35:10.246Z,7.82
2023-09-06T08:37:36.944Z,7.97
2023-09-06T08:40:06.713Z,7.25
2023-09-06T08:42:37.415Z,6.72
2023-09-06T08:45:06.779Z,8.35
2023-09-06T08:47:34.098Z,6.78
2023-09-06T08:50:01.107Z,9.25
2023-09-06T08:52:29.072Z,7.40
2023-09-06T08:54:55.560Z,7.95
2023-09-06T08:57:23.252Z,5.75
2023-09-06T08:59:50.153Z,6.35
2023-09-06T09:02:17.283Z,6.28
2023-09-06T09:04:44.373Z,7.57
2023-09-06T09:07:12.342Z,5.40
2023-09-06T09:10:03.132Z,6.97
2023-09-06T09:12:30.530Z,5.28
2023-09-06T09:15:04.479Z,6.13
2023-09-06T09:17:53.190Z,6.63
2023-09-06T09:20:23.778Z,6.95
2023-09-06T09:22:51.967Z,6.05
2023-09-06T09:25:24.276Z,5.82
2023-09-06T09:27:59.527Z,7.90
2023-09-06T09:30:28.869Z,7.90
2023-09-06T09:33:02.491Z,7.10
2023-09-06T09:35:29.347Z,5.60
2023-09-06T09:37:57.633Z,6.85
2023-09-06T09:40:52.343Z,5.93
2023-09-06T09:43:25.547Z,6.32
2023-09-06T09:45:52.404Z,6.88
2023-09-06T09:48:21.226Z,5.63
2023-09-06T09:50:51.466Z,6.45
2023-09-06T09:53:24.553Z,5.35
2023-09-06T09:55:54.807Z,7.22
2023-09-06T09:58:21.910Z,8.02
2023-09-06T10:00:52.286Z,8.18
2023-09-06T10:03:19.903Z,7.03
2023-09-06T10:05:48.793Z,5.80
2023-09-06T10:08:18.885Z,5.55
2023-09-06T10:10:45.814Z,5.57
2023-09-06T10:13:15.838Z,5.25
2023-09-06T10:15:44.945Z,6.32
2023-09-06T10:18:12.347Z,9.82
2023-09-06T10:20:40.370Z,5.30
2023-09-06T10:23:08.652Z,6.65
2023-09-06T10:25:41.013Z,5.18
2023-09-06T10:28:08.566Z,4.70
2023-09-06T10:30:45.254Z,6.40
2023-09-06T10:33:38.096Z,6.03
2023-09-06T10:36:10.066Z,4.55
2023-09-06T10:38:52.284Z,6.78
2023-09-06T10:41:19.967Z,5.20
2023-09-06T10:43:57.000Z,5.72
2023-09-06T10:46:25.802Z,6.25
2023-09-06T10:49:22.451Z,6.75
2023-09-06T10:51:55.861Z,5.53
2023-09-06T10:54:35.643Z,6.40
2023-09-06T10:57:06.315Z,6.05
2023-09-06T10:59:40.195Z,6.40
2023-09-06T11:02:10.760Z,4.78
2023-09-06T11:04:37.761Z,4.68
2023-09-06T11:07:11.308Z,7.13
2023-09-06T11:09:51.754Z,4.63
2023-09-06T11:12:18.504Z,5.57
2023-09-06T11:14:48.881Z,4.60
2023-09-06T11:17:23.302Z,4.55
2023-09-06T11:19:49.979Z,4.53
2023-09-06T11:22:17.691Z,4.47
2023-09-06T11:24:44.852Z,5.15
2023-09-06T11:27:18.643Z,4.55
2023-09-06T11:29:45.142Z,3.17
2023-09-06T11:32:15.174Z,6.32
2023-09-06T11:34:44.907Z,3.95
2023-09-06T11:37:16.178Z,5.30
2023-09-06T11:39:44.656Z,4.30
2023-09-06T11:42:15.604Z,3.78
2023-09-06T11:44:49.378Z,4.88
2023-09-06T11:47:17.612Z,4.32
2023-09-06T11:49:46.714Z,5.10
2023-09-06T11:52:15.544Z,3.80
2023-09-06T11:54:43.804Z,4.10
2023-09-06T11:57:32.491Z,4.80
2023-09-06T11:59:59.001Z,3.90
2023-09-06T12:02:28.922Z,4.70
2023-09-06T12:05:12.689Z,3.40
2023-09-06T12:07:39.190Z,4.22
2023-09-06T12:10:08.215Z,3.40
2023-09-06T12:12:41.989Z,3.95
2023-09-06T12:15:15.782Z,3.70
2023-09-06T12:17:43.803Z,3.63
2023-09-06T12:20:17.610Z,3.88
2023-09-06T12:22:44.253Z,3.78
2023-09-06T12:25:10.942Z,3.47
2023-09-06T12:27:37.709Z,2.88
2023-09-06T12:30:04.673Z,4.55
2023-09-06T12:32:32.794Z,2.90
2023-09-06T12:35:00.621Z,2.78
2023-09-06T12:37:27.178Z,3.50
2023-09-06T12:39:53.628Z,3.30
2023-09-06T12:42:20.471Z,4.50
2023-09-06T12:44:46.947Z,4.38
2023-09-06T12:47:13.365Z,4.10
2023-09-06T12:49:40.144Z,2.50
2023-09-06T12:52:06.677Z,6.75
2023-09-06T12:54:33.064Z,5.63
2023-09-06T12:56:59.891Z,4.35
2023-09-06T12:59:26.280Z,4.97
2023-09-06T13:01:52.865Z,4.97
2023-09-06T13:04:19.794Z,5.10
2023-09-06T13:06:46.913Z,4.30
2023-09-06T13:09:14.811Z,3.35
2023-09-06T13:11:41.765Z,4.63
2023-09-06T13:14:08.173Z,4.28
2023-09-06T13:16:34.631Z,5.18
2023-09-06T13:19:01.216Z,9.25
2023-09-06T13:21:27.802Z,3.22
2023-09-06T13:23:54.239Z,3.85
2023-09-06T13:26:20.799Z,4.78
2023-09-06T13:28:47.332Z,2.97
2023-09-06T13:31:14.051Z,6.03
2023-09-06T13:33:41.044Z,4.03
2023-09-06T13:36:07.660Z,4.00
2023-09-06T13:38:34.145Z,2.90
2023-09-06T13:41:01.002Z,4.25
2023-09-06T13:43:27.472Z,4.72
2023-09-06T13:45:54.535Z,6.53
2023-09-06T13:48:21.202Z,5.95
2023-09-06T13:50:47.779Z,3.47
2023-09-06T13:53:14.140Z,4.18
2023-09-06T13:55:40.736Z,4.03
2023-09-06T13:58:09.902Z,4.85
2023-09-06T14:00:36.412Z,4.68
2023-09-06T14:03:03.359Z,4.15
2023-09-06T14:05:30.385Z,4.70
2023-09-06T14:07:56.777Z,4.70
2023-09-06T14:10:23.217Z,5.53
2023-09-06T14:12:49.574Z,3.75
2023-09-06T14:15:16.116Z,6.15
2023-09-06T14:17:42.706Z,3.88
2023-09-06T14:20:10.645Z,5.95
2023-09-06T14:22:37.055Z,5.60
2023-09-06T14:25:03.838Z,4.00
2023-09-06T14:27:31.107Z,4.35
2023-09-06T14:29:58.998Z,5.32
2023-09-06T14:32:25.668Z,3.47
2023-09-06T14:34:52.734Z,5.18
2023-09-06T14:37:19.268Z,3.80
2023-09-06T14:39:46.006Z,4.43
2023-09-06T14:42:12.361Z,4.65
2023-09-06T14:44:38.812Z,7.40
2023-09-06T14:47:05.520Z,4.53
2023-09-06T14:49:32.021Z,4.43
2023-09-06T14:52:01.313Z,4.47
2023-09-06T14:54:28.993Z,7.65
2023-09-06T14:56:58.970Z,4.35
2023-09-06T14:59:25.410Z,5.65
2023-09-06T15:01:52.316Z,4.57
2023-09-06T15:04:18.916Z,3.80
2023-09-06T15:06:57.934Z,3.90
2023-09-06T15:09:26.528Z,5.70
2023-09-06T15:11:53.865Z,6.05
2023-09-06T15:14:20.671Z,5.22
2023-09-06T15:16:47.804Z,4.95
2023-09-06T15:19:14.677Z,6.10
2023-09-06T15:21:41.251Z,4.82
2023-09-06T15:24:08.968Z,4.60
2023-09-06T15:26:35.439Z,4.03
2023-09-06T15:29:01.793Z,4.28
2023-09-06T15:31:30.773Z,4.03
2023-09-06T15:33:57.538Z,5.60
2023-09-06T15:36:26.740Z,4.03
2023-09-06T15:38:53.576Z,3.00
2023-09-06T15:41:20.009Z,3.55
2023-09-06T15:43:46.429Z,5.68
2023-09-06T15:46:13.748Z,3.80
2023-09-06T15:48:40.267Z,3.97
2023-09-06T15:51:06.738Z,4.40
2023-09-06T15:53:33.636Z,3.63
2023-09-06T15:56:00.208Z,7.57
2023-09-06T15:58:28.459Z,5.60
2023-09-06T16:00:55.226Z,6.15
2023-09-06T16:03:21.729Z,5.60
2023-09-06T16:05:48.215Z,5.15
2023-09-06T16:08:15.154Z,6.13
2023-09-06T16:10:41.509Z,5.00
2023-09-06T16:13:07.881Z,4.43
2023-09-06T16:15:34.723Z,3.42
2023-09-06T16:18:01.264Z,5.43
2023-09-06T16:20:27.798Z,5.20
2023-09-06T16:22:54.598Z,3.55
2023-09-06T16:25:20.984Z,3.80
2023-09-06T16:27:47.429Z,5.68
2023-09-06T16:30:14.865Z,3.03
2023-09-06T16:32:41.585Z,4.70
2023-09-06T16:35:08.392Z,3.55
2023-09-06T16:37:36.684Z,3.58
2023-09-06T16:40:03.211Z,3.75
2023-09-06T16:42:29.633Z,2.65
2023-09-06T16:44:56.470Z,3.95
2023-09-06T16:47:24.267Z,4.70
2023-09-06T16:49:52.477Z,3.90
2023-09-06T16:52:19.586Z,4.28
2023-09-06T16:54:46.045Z,4.78
2023-09-06T16:57:12.433Z,5.43
2023-09-06T16:59:39.251Z,4.50
2023-09-06T17:02:05.831Z,4.07
2023-09-06T17:04:32.405Z,3.42
2023-09-06T17:06:58.913Z,2.88
2023-09-06T17:09:25.275Z,3.88
2023-09-06T17:11:51.661Z,4.82
2023-09-06T17:14:18.385Z,3.53
2023-09-06T17:16:44.931Z,3.38
2023-09-06T17:19:11.486Z,2.80
2023-09-06T17:21:40.357Z,6.65
2023-09-06T17:24:08.376Z,4.03
2023-09-06T17:26:37.345Z,5.95
2023-09-06T17:29:07.555Z,3.17
2023-09-06T17:31:35.343Z,3.53
2023-09-06T17:34:02.112Z,2.45
2023-09-06T17:36:28.912Z,6.65
2023-09-06T17:38:55.376Z,2.95
2023-09-06T17:41:24.640Z,3.28
2023-09-06T17:43:51.922Z,3.00
2023-09-06T17:46:25.886Z,4.95
2023-09-06T17:51:20.879Z,2.95
2023-09-06T17:53:49.215Z,5.38
2023-09-06T17:56:20.744Z,3.50
2023-09-06T17:58:51.005Z,4.50
2023-09-06T18:01:19.961Z,3.15
2023-09-06T18:03:53.419Z,5.47
2023-09-06T18:06:25.411Z,4.28
2023-09-06T18:08:55.903Z,5.40
2023-09-06T18:11:22.986Z,5.07
2023-09-06T18:13:49.936Z,7.22
2023-09-06T18:16:18.087Z,5.28
2023-09-06T18:18:45.229Z,5.93
2023-09-06T18:21:14.582Z,5.05
2023-09-06T18:23:41.608Z,7.53
2023-09-06T18:26:09.123Z,3.25
2023-09-06T18:28:35.852Z,3.83
2023-09-06T18:31:03.160Z,5.90
2023-09-06T18:33:29.693Z,4.28
2023-09-06T18:35:56.545Z,8.00
2023-09-06T18:38:24.741Z,5.70
2023-09-06T18:40:54.350Z,4.75
2023-09-06T18:43:22.883Z,5.22
2023-09-06T18:45:50.193Z,4.82
2023-09-06T18:48:23.324Z,4.93
2023-09-06T18:50:50.970Z,5.43
2023-09-06T18:53:17.768Z,6.50
2023-09-06T18:55:47.982Z,7.65
2023-09-06T18:58:18.944Z,8.70
2023-09-06T19:00:45.804Z,4.78
2023-09-06T19:03:15.540Z,7.55
2023-09-06T19:05:43.510Z,6.60
2023-09-06T19:08:12.981Z,4.18
2023-09-06T19:10:41.267Z,5.05
2023-09-06T19:13:08.877Z,5.93
2023-09-06T19:15:35.236Z,5.70
2023-09-06T19:18:01.982Z,4.93
2023-09-06T19:20:28.748Z,4.95
2023-09-06T19:22:55.360Z,8.55
2023-09-06T19:25:25.947Z,4.95
2023-09-06T19:27:52.954Z,6.18
2023-09-06T19:30:19.680Z,5.32
2023-09-06T19:32:46.097Z,4.85
2023-09-06T19:35:12.837Z,4.65
2023-09-06T19:37:39.627Z,8.55
2023-09-06T19:40:06.766Z,4.85
2023-09-06T19:42:35.089Z,4.40
2023-09-06T19:45:02.206Z,5.63
2023-09-06T19:47:29.209Z,5.30
2023-09-06T19:49:56.938Z,4.93
2023-09-06T19:52:23.668Z,5.60
2023-09-06T19:54:50.533Z,5.15
2023-09-06T19:57:17.118Z,4.63
2023-09-06T19:59:44.307Z,5.07
2023-09-06T20:02:10.797Z,4.45
2023-09-06T20:04:37.839Z,7.10
2023-09-06T20:07:05.047Z,5.90
2023-09-06T20:09:32.069Z,6.38
2023-09-06T20:11:59.450Z,4.18
2023-09-06T20:14:28.721Z,5.07
2023-09-06T20:16:57.084Z,6.00
2023-09-06T20:19:24.844Z,5.32
2023-09-06T20:21:51.382Z,4.75
2023-09-06T20:24:18.165Z,5.50
2023-09-06T20:26:44.824Z,5.38
2023-09-06T20:29:11.781Z,5.15
2023-09-06T20:31:38.435Z,5.25
2023-09-06T20:34:05.623Z,7.75
2023-09-06T20:36:34.091Z,5.25
2023-09-06T20:39:00.959Z,7.80
2023-09-06T20:41:27.551Z,4.85
2023-09-06T20:43:54.045Z,5.85
2023-09-06T20:46:20.905Z,7.22
2023-09-06T20:48:47.608Z,4.60
2023-09-06T20:51:17.320Z,5.18
2023-09-06T20:53:44.469Z,5.45
2023-09-06T20:56:12.199Z,5.70
2023-09-06T20:58:39.141Z,7.10
2023-09-06T21:01:16.559Z,7.85
2023-09-06T21:03:43.806Z,7.43
2023-09-06T21:06:11.952Z,5.70
2023-09-06T21:08:38.865Z,4.82
2023-09-06T21:11:05.622Z,5.65
2023-09-06T21:13:33.639Z,5.65
2023-09-06T21:16:03.236Z,7.20
2023-09-06T21:18:31.308Z,5.50
2023-09-06T21:20:58.696Z,5.55
2023-09-06T21:23:25.454Z,5.45
2023-09-06T21:25:52.365Z,5.97
2023-09-06T21:28:18.878Z,5.40
2023-09-06T21:30:48.795Z,4.35
2023-09-06T21:33:16.122Z,5.45
2023-09-06T21:35:44.517Z,4.95
2023-09-06T21:38:12.285Z,4.07
2023-09-06T21:40:42.840Z,4.60
2023-09-06T21:43:17.560Z,7.53
2023-09-06T21:45:45.250Z,6.05
2023-09-06T21:48:12.308Z,5.05
2023-09-06T21:50:40.882Z,5.05
2023-09-06T21:53:08.144Z,5.25
2023-09-06T21:55:34.778Z,4.85
2023-09-06T21:58:09.439Z,4.43
2023-09-06T22:00:36.607Z,4.63
2023-09-06T22:03:03.713Z,5.53
2023-09-06T22:05:30.181Z,3.92
2023-09-06T22:07:56.649Z,5.10
2023-09-06T22:10:23.508Z,5.30
2023-09-06T22:12:50.013Z,5.90
2023-09-06T22:15:16.750Z,5.80
2023-09-06T22:17:43.535Z,4.90
2023-09-06T22:20:10.957Z,5.60
2023-09-06T22:22:37.540Z,5.28
2023-09-06T22:25:06.016Z,5.95
2023-09-06T22:27:33.298Z,4.82
2023-09-06T22:29:59.958Z,5.15
2023-09-06T22:32:27.174Z,4.13
2023-09-06T22:34:53.782Z,5.03
2023-09-06T22:37:20.602Z,4.13
2023-09-06T22:39:47.191Z,5.25
2023-09-06T22:42:13.804Z,5.60
2023-09-06T22:44:40.725Z,4.70
2023-09-06T22:47:08.932Z,6.88
2023-09-06T22:49:38.625Z,5.93
2023-09-06T22:52:06.798Z,4.95
2023-09-06T22:54:34.311Z,9.25
2023-09-06T22:57:00.712Z,5.93
2023-09-06T22:59:27.941Z,5.25
2023-09-06T23:01:55.153Z,4.10
2023-09-06T23:04:22.064Z,4.65
2023-09-06T23:06:48.965Z,4.18
2023-09-06T23:09:19.795Z,5.70
2023-09-06T23:11:48.142Z,4.80
2023-09-06T23:14:18.281Z,3.90
2023-09-06T23:16:49.196Z,7.20
2023-09-06T23:19:28.774Z,4.15
2023-09-06T23:22:00.150Z,3.90
2023-09-06T23:24:28.764Z,5.35
2023-09-06T23:27:00.694Z,5.90
2023-09-06T23:29:35.764Z,5.60
2023-09-06T23:32:06.287Z,4.15
2023-09-06T23:34:35.170Z,4.13
2023-09-06T23:37:05.026Z,5.05
2023-09-06T23:39:34.129Z,4.60
2023-09-06T23:42:10.402Z,4.40
2023-09-06T23:44:39.153Z,4.93
2023-09-06T23:47:07.471Z,5.35
2023-09-06T23:49:36.123Z,5.20
2023-09-06T23:52:03.148Z,6.70
2023-09-06T23:54:40.701Z,5.90
2023-09-06T23:57:13.644Z,4.40
2023-09-06T23:59:40.012Z,4.32
